Weather at Roma Airport

Public forecast

Using degrees Celsius for public forecast. Weather courtesy of forecast.io.

Closest aviation weather report (METAR) to Roma Airport

Closest report is Charleville Airport, 135.3 nm (250.5 km) W. Retrieved 2020/10/22 17:00 UTC (21 minutes ago):

YBCV 221700Z AUTO 05005KT 9999 // NCD 23/09 Q1007

Closest aviation forecast (TAF) to Roma Airport

Forecast is more than 6 hours old.

Closest forecast is RAAF Base Amberley, 220.5 nm (408.3 km) ESE. Retrieved 2020/10/22 06:00 UTC (11 hours ago):

TAF YAMB 220510Z 2206/2306 04010KT 9999 SCT035 BKN050 FM221200 09006KT 9999 SCT020 BKN035 FM221700 VRB02KT 9999 MIFG SCT015 BKN030 FM222100 09007KT 9999 NSW SCT025 BKN035 FM230400 05012KT 9999 -SHRA BKN030 BKN050 INTER 2206/2209 6000 -SHRA BKN020